KENL/ENL METAR and TAF weather

Enter ICAO airport designator
Station Type Date Time Source
KENL METAR 2022/05/24 12:15 UTC NOAA

KENL 241215Z AUTO 08005KT 10SM CLR 14/11 A3011 RMK AO2 T01400111


Station Type Date Time Source
KENL Decoded METAR 2022/05/24 12:15 UTC NOAA

Centralia, Centralia Municipal Airport, IL, United States (KENL) 38-30-53N 089-05-32W
May 24, 2022 - 08:15 AM EDT / 2022.05.24 1215 UTC
Wind: from the E (080 degrees) at 6 MPH (5 KT):0
Visibility: 10 mile(s):0
Sky conditions: clear
Temperature: 57.2 F (14.0 C)
Dew Point: 52.0 F (11.1 C)
Relative Humidity: 82%
Pressure (altimeter): 30.11 in. Hg (1019 hPa)
ob: KENL 241215Z AUTO 08005KT 10SM CLR 14/11 A3011 RMK AO2 T01400111
cycle: 12

Station Type Date Time Source
KENL TAF UTC NOAA

Error!

Example: see airport list